INFORMACIÓN METAR y TAF
METAR FOR LEIB
ADDS - METARS form results

(1142 UTC 10 August 2020)
Data provider http://aviationweather.gov/metar/data/
 
METAR text: LEIB 101130Z 09010KT 050V110 CAVOK 29/23 Q1013 NOSIG
Conditions at: LEIB (IBIZA/ES CODOLA , ES) observed 1130 UTC 10 August 2020
Temperature: 29.0°C (84°F)
Dewpoint: 23.0°C (73°F) [RH = 70%]
Pressure (altimeter): 29.91 inches Hg (1013.0 mb)
Winds: from the E (90 degrees) at 12 MPH (10 knots; 5.1 m/s)
Visibility: 6 or more miles (10+ km)
Ceiling: ceiling and visibility are OK
Clouds: unknown
Weather: no significant weather observed at this time

METAR text: LEIB 101100Z 09009KT 050V140 CAVOK 29/22 Q1013 NOSIG
Conditions at: LEIB (IBIZA/ES CODOLA , ES) observed 1100 UTC 10 August 2020
Temperature: 29.0°C (84°F)
Dewpoint: 22.0°C (72°F) [RH = 66%]
Pressure (altimeter): 29.91 inches Hg (1013.0 mb)
Winds: from the E (90 degrees) at 10 MPH (9 knots; 4.6 m/s)
Visibility: 6 or more miles (10+ km)
Ceiling: ceiling and visibility are OK
Clouds: unknown
Weather: no significant weather observed at this time

Forecast for: LEIB (IBIZA/ES CODOLA , ES)
Text: TAF LEIB 100800Z 1009/1109 10009KT CAVOK TX32/1015Z TN22/1105Z
Forecast period: 0900 UTC 10 August 2020 to 0700 UTC 11 August 2020
Forecast type: FROM: standard forecast or significant change
Winds: from the E (100 degrees) at 10 MPH (9 knots; 4.6 m/s)
Visibility: 6 or more miles (10+ km)
Ceiling: unknown
Clouds: missing
Weather: no significant weather forecast for this period
Text: BECMG 1107/1109 11015KT
Forecast period: 0700 to 0900 UTC 11 August 2020
Forecast type: BECOMING: Conditions expected to become as follows by 0900 UTC 11 August 2020
Winds: from the ESE (110 degrees) at 17 MPH (15 knots; 7.7 m/s)
Visibility: 6 or more miles (10+ km)
Ceiling: unknown
Clouds: missing
Weather: no significant weather forecast for this period

MAPA DE AEROPUERTO

INFORMACIÓN DE PISTA
Pista 06 Longitud 9186 ft Ancho 148 ft
Elevación 13 ft Umbral desplazado 0 ft Rumbo de pista 62
Pista 24 Longitud 9186 ft Ancho 148 ft
Elevación 16 ft Umbral desplazado 0 ft Rumbo de pista 242

FRECUANCIAS DEL AEROPUERTO
Tipo APP Nombre PALMA APP Frecuencia 118.125 MHZ
Tipo APP Nombre APP Frecuencia 119.8 MHZ
Tipo ATIS Nombre ATIS Frecuencia 117.8 MHZ
Tipo GND Nombre GND Frecuencia 121.8 MHZ
Tipo TWR Nombre TWR Frecuencia 118.5 MHZ

RADIO AYUDAS DEL AEROPUERTO
Tipo VOR-DME Nombre Ibiza Frecuencia 117800 KHZ
Tipo NDB Nombre Ibiza Frecuencia 394 KHZ